Flight Track Log - Related Links

Times and Time Zones

All times are in EST time to prevent confusion due to time zone crossing. See the GUG717 flight status page for this flight to view local times or setup timezone preferences in your user account.

Time Position Orientation Groundspeed Altitude Reporting Facility
EST Latitude Longitude Course Direction KTS MPH feet Rate Location/Type
Wed 04:04:00 PM 13.0866 -88.2582 114° Southeast  Level Estimated
Wed 04:05:00 PM 13.0612 -88.2014 115° Southeast  Level Estimated
Wed 04:06:00 PM 13.0357 -88.1445 115° Southeast  Level Estimated
Wed 04:07:00 PM 13.0103 -88.0876 115° Southeast  Level Estimated
Wed 04:08:00 PM 12.9849 -88.0308 115° Southeast  Level Estimated
Wed 04:09:00 PM 12.9594 -87.9740 115° Southeast  Level Estimated
Wed 04:10:00 PM 12.9339 -87.9172 115° Southeast  Level Estimated
Wed 04:11:00 PM 12.9085 -87.8604 115° Southeast  Level Estimated
Wed 04:12:00 PM 12.8830 -87.8036 115° Southeast  Level Estimated
Wed 04:13:00 PM 12.8575 -87.7468 115° Southeast  Level Estimated
Wed 04:14:00 PM 12.8319 -87.6900 115° Southeast  Level Estimated
Wed 04:15:00 PM 12.8064 -87.6332 115° Southeast  Level Estimated
Wed 04:16:00 PM 12.7809 -87.5765 115° Southeast  Level Estimated
Wed 04:17:00 PM 12.7553 -87.5198 115° Southeast  Level Estimated
Wed 04:18:00 PM 12.7297 -87.4630 115° Southeast  Level Estimated
Wed 04:19:00 PM 12.7042 -87.4063 115° Southeast  Level Estimated
Wed 04:20:00 PM 12.6786 -87.3496 115° Southeast  Level Estimated
Wed 04:21:00 PM 12.6530 -87.2929 115° Southeast  Level Estimated
Wed 04:22:00 PM 12.6274 -87.2363 115° Southeast  Level Estimated
Wed 04:23:00 PM 12.6017 -87.1796 115° Southeast  Level Estimated
Wed 04:24:00 PM 12.5761 -87.1229 115° Southeast  Level Estimated
Wed 04:25:00 PM 12.5504 -87.0663 115° Southeast  Level Estimated
Wed 04:26:00 PM 12.5248 -87.0097 115° Southeast  Level Estimated
Wed 04:27:00 PM 12.4991 -86.9530 115° Southeast  Level Estimated
Wed 04:28:00 PM 12.4734 -86.8964 115° Southeast  Level Estimated
Wed 04:29:00 PM 12.4477 -86.8398 115° Southeast  Level Estimated
Wed 04:30:00 PM 12.4220 -86.7832 115° Southeast  Level Estimated
Wed 04:31:00 PM 12.3963 -86.7267 115° Southeast  Level Estimated
Wed 04:32:00 PM 12.3706 -86.6701 115° Southeast  Level Estimated
Wed 04:33:00 PM 12.3448 -86.6135 115° Southeast  Level Estimated
Wed 04:34:00 PM 12.3190 -86.5570 115° Southeast  Level Estimated
Wed 04:35:00 PM 12.2933 -86.5005 115° Southeast  Level Estimated
Wed 04:36:00 PM 12.2675 -86.4439 115° Southeast  Level Estimated
Wed 04:37:00 PM 12.2417 -86.3874 115° Southeast  Level Estimated
Wed 04:38:00 PM 12.2159 -86.3309 115° Southeast  Level Estimated
Wed 04:39:00 PM 12.1901 -86.2745 115° Southeast  Level Estimated
Wed 04:40:00 PM 12.1643 -86.2180 115° Southeast  Level Estimated
Wed 04:41:00 PM 12.1415 -86.1682 115° Southeast  Level Estimated
Wed 04:42:00 PM 12.1415 -86.1682 26° Northeast  Level Estimated
Wed 04:43:00 PM 12.1415 -86.1682 26° Northeast  Level Estimated
Wed 04:44:00 PM 12.1415 -86.1682 26° Northeast  Level Estimated
Wed 04:45:00 PM 12.1415 -86.1682 26° Northeast  Level Estimated
Wed 04:46:00 PM 12.1415 -86.1682 26° Northeast  Level Estimated
Wed 04:47:00 PM 12.1415 -86.1682 26° Northeast  Level Estimated
Wed 04:48:00 PM 12.1415 -86.1682 26° Northeast  Level Estimated
Wed 04:49:00 PM 12.1415 -86.1682 26° Northeast  Level Estimated
Wed 04:50:00 PM 12.1415 -86.1682 26° Northeast  Level Estimated
Wed 04:51:00 PM 12.1415 -86.1682 26° Northeast  Level Estimated
Wed 04:52:00 PM 12.1415 -86.1682 26° Northeast  Level Estimated
Wed 04:53:00 PM 12.1415 -86.1682 26° Northeast  Level Estimated
Wed 04:54:00 PM 12.1415 -86.1682 26° Northeast  Level Estimated
Wed 04:55:00 PM 12.1415 -86.1682 26° Northeast  Level Estimated
Wed 04:56:00 PM 12.1415 -86.1682 26° Northeast  Level Estimated
Wed 04:57:00 PM 12.1415 -86.1682 26° Northeast  Level Estimated

Login

Don't have an account? Register now (free) for customized features, flight alerts, and more!